Time;durP1;ratioP1;P1;durP2;ratioP2;P2;SDS_P1;SDS_P2;PMS_P1;PMS_P2;Temp;Humidity;BMP_temperature;BMP_pressure;BME280_temperature;BME280_humidity;BME280_pressure;Samples;Min_cycle;Max_cycle;Signal;HPM_P1;HPM_P2
2022/12/06 00:01:25;;;;;;;22.90;16.88;;;;;;;3.53;100.00;124965.56;5050345;28;20025;-64
2022/12/06 00:03:53;;;;;;;27.13;14.60;;;;;;;3.56;100.00;124971.72;5051054;28;20428;-65
2022/12/06 00:06:21;;;;;;;25.63;16.95;;;;;;;3.54;100.00;125315.00;5050623;28;20605;-64
2022/12/06 00:08:47;;;;;;;21.80;13.48;;;;;;;3.54;100.00;125314.00;5051487;28;20033;-64
2022/12/06 00:11:21;;;;;;;23.23;15.60;;;;;;;3.51;100.00;125654.16;5050069;28;20037;-64
2022/12/06 00:13:47;;;;;;;22.27;15.43;;;;;;;3.54;100.00;125660.38;5052250;28;20079;-64
2022/12/06 00:16:15;;;;;;;23.45;14.93;;;;;;;3.54;100.00;125660.38;5049791;28;20068;-64
2022/12/06 00:18:42;;;;;;;27.70;17.52;;;;;;;3.55;100.00;125663.47;5051169;28;20613;-64
2022/12/06 00:21:27;;;;;;;24.35;14.52;;;;;;;3.56;100.00;126010.94;5050102;28;20037;-64
2022/12/06 00:23:54;;;;;;;26.98;17.25;;;;;;;3.56;100.00;125665.56;5051956;28;20447;-64
2022/12/06 00:26:21;;;;;;;22.67;15.02;;;;;;;3.57;100.00;125666.59;5044787;28;20036;-63
2022/12/06 00:28:47;;;;;;;22.42;15.90;;;;;;;3.58;100.00;125668.66;5050671;28;20598;-64
2022/12/06 00:31:15;;;;;;;24.05;16.63;;;;;;;3.55;100.00;126009.91;5049610;28;20139;-63
2022/12/06 00:33:41;;;;;;;20.48;14.50;;;;;;;3.58;100.00;125669.69;5051259;28;20025;-63
2022/12/06 00:36:13;;;;;;;25.92;16.38;;;;;;;3.61;100.00;125675.91;5049469;28;20102;-63
2022/12/06 00:38:38;;;;;;;24.17;17.65;;;;;;;3.62;100.00;125330.50;5041348;28;20484;-63
2022/12/06 00:41:08;;;;;;;28.48;15.45;;;;;;;3.62;100.00;125676.94;5029367;28;20048;-63
2022/12/06 00:43:34;;;;;;;26.48;18.17;;;;;;;3.58;100.00;126015.09;5031255;28;20030;-63
2022/12/06 00:46:00;;;;;;;21.55;16.10;;;;;;;3.59;100.00;126017.19;5029798;28;20060;-63
2022/12/06 00:48:25;;;;;;;26.38;17.83;;;;;;;3.55;100.00;126356.38;5030990;28;20025;-65
2022/12/06 00:50:51;;;;;;;28.27;16.95;;;;;;;3.53;100.00;126351.16;5029595;28;20055;-63
2022/12/06 00:53:17;;;;;;;28.95;16.52;;;;;;;3.56;100.00;126358.47;5031367;28;20029;-63
2022/12/06 00:55:42;;;;;;;28.27;17.10;;;;;;;3.57;100.00;126360.56;5029626;28;20053;-63
2022/12/06 00:58:09;;;;;;;28.27;17.90;;;;;;;3.57;100.00;126359.50;5031325;28;20553;-63
2022/12/06 01:00:34;;;;;;;26.55;16.17;;;;;;;3.60;100.00;126365.78;5032514;28;20033;-63
2022/12/06 01:03:00;;;;;;;23.70;16.33;;;;;;;3.56;100.00;126358.47;5029202;28;20103;-63
2022/12/06 01:05:25;;;;;;;27.25;18.80;;;;;;;3.58;100.00;126361.59;5031606;28;20036;-63
2022/12/06 01:07:50;;;;;;;25.30;17.38;;;;;;;3.55;100.00;126355.31;5029575;28;20527;-65
2022/12/06 01:10:16;;;;;;;29.40;18.85;;;;;;;3.54;100.00;126700.78;5030943;28;20040;-64
2022/12/06 01:12:41;;;;;;;27.13;17.73;;;;;;;3.53;100.00;126697.66;5029793;28;20041;-64
2022/12/06 01:15:07;;;;;;;32.30;19.35;;;;;;;3.54;100.00;126699.75;5031143;28;20052;-64
2022/12/06 01:17:34;;;;;;;28.70;20.13;;;;;;;3.53;100.00;127045.19;5029307;28;20096;-64
2022/12/06 01:19:59;;;;;;;30.38;19.95;;;;;;;3.58;100.00;126708.09;5030977;28;20032;-64
2022/12/06 01:22:25;;;;;;;26.63;17.08;;;;;;;3.59;100.00;126710.19;5029696;28;20411;-64
2022/12/06 01:24:50;;;;;;;33.60;21.70;;;;;;;3.57;100.00;127052.53;5030532;28;20041;-64
2022/12/06 01:27:15;;;;;;;30.90;19.65;;;;;;;3.57;100.00;127052.53;5029704;28;20053;-66
2022/12/06 01:29:41;;;;;;;33.90;18.58;;;;;;;3.53;100.00;127390.69;5030475;28;20500;-64
2022/12/06 01:32:06;;;;;;;41.67;20.63;;;;;;;3.58;100.00;127401.19;5028905;28;20193;-64
2022/12/06 01:34:31;;;;;;;37.78;20.02;;;;;;;3.58;100.00;127747.78;5031049;28;20028;-64
2022/12/06 01:36:57;;;;;;;38.70;20.17;;;;;;;3.54;100.00;127739.38;5029214;28;20057;-64
2022/12/06 01:39:22;;;;;;;33.33;18.92;;;;;;;3.56;100.00;128090.19;5030455;28;20060;-64
2022/12/06 01:41:47;;;;;;;32.50;19.90;;;;;;;3.56;100.00;128090.19;5029528;28;20042;-64
2022/12/06 01:44:40;;;;;;;28.20;17.60;;;;;;;3.55;100.00;128089.13;5030416;28;20632;-64
2022/12/06 01:47:12;;;;;;;30.55;20.15;;;;;;;3.55;100.00;128088.06;5028888;28;20109;-64
2022/12/06 01:49:37;;;;;;;33.85;18.85;;;;;;;3.56;100.00;128090.19;5030821;28;20025;-64
2022/12/06 01:52:11;;;;;;;30.27;19.58;;;;;;;3.58;100.00;128094.41;5029084;28;20103;-62
2022/12/06 01:54:39;;;;;;;32.20;19.70;;;;;;;3.54;100.00;128085.97;5030400;28;20079;-62
2022/12/06 01:57:07;;;;;;;42.70;19.15;;;;;;;3.56;100.00;128090.19;5029093;28;20038;-62
2022/12/06 01:59:33;;;;;;;34.17;17.00;;;;;;;3.59;100.00;127749.91;5030710;28;20134;-62
2022/12/06 02:01:58;;;;;;;36.05;19.17;;;;;;;3.59;100.00;127750.94;5028602;28;20049;-62
2022/12/06 02:04:25;;;;;;;32.35;19.60;;;;;;;3.59;100.00;127749.91;5030736;28;20021;-62
2022/12/06 02:06:52;;;;;;;34.97;18.70;;;;;;;3.59;100.00;127749.91;5028841;28;20045;-61
2022/12/06 02:09:19;;;;;;;26.48;16.50;;;;;;;3.59;100.00;127749.91;5041714;28;20029;-61
2022/12/06 02:11:46;;;;;;;27.60;18.35;;;;;;;3.58;100.00;127748.81;5049065;28;20116;-63
2022/12/06 02:14:16;;;;;;;30.15;17.55;;;;;;;3.59;100.00;127404.34;5050494;28;20033;-62
2022/12/06 02:16:48;;;;;;;29.15;15.95;;;;;;;3.52;100.00;127389.63;5048568;28;20041;-63
2022/12/06 02:19:22;;;;;;;22.08;16.00;;;;;;;3.61;100.00;127060.94;5065701;28;20024;-63
2022/12/06 02:21:59;;;;;;;32.70;17.45;;;;;;;3.61;100.00;126714.38;5048859;28;20128;-63
2022/12/06 02:24:41;;;;;;;27.02;16.40;;;;;;;3.56;100.00;126358.47;5050135;28;20567;-62
2022/12/06 02:27:18;;;;;;;27.50;16.45;;;;;;;3.64;100.00;126374.09;5023882;28;20140;-63
2022/12/06 02:30:10;;;;;;;29.55;18.27;;;;;;;3.62;100.00;126023.41;5030231;28;20064;-63
2022/12/06 02:32:46;;;;;;;20.83;14.88;;;;;;;3.67;100.00;125339.81;5004412;28;20103;-62
2022/12/06 02:35:28;;;;;;;29.40;15.40;;;;;;;3.67;100.00;125340.84;5023453;28;20113;-63
2022/12/06 02:38:08;;;;;;;26.52;17.60;;;;;;;3.67;100.00;124994.41;5028413;28;20037;-63
2022/12/06 02:41:07;;;;;;;21.65;15.23;;;;;;;3.69;100.00;124651.06;5031466;28;20061;-63
2022/12/06 02:43:45;;;;;;;23.90;15.85;;;;;;;3.69;100.00;124305.69;5032257;28;20488;-62
2022/12/06 02:46:13;;;;;;;23.92;14.85;;;;;;;3.69;100.00;124305.69;5032071;28;20053;-63
2022/12/06 02:48:40;;;;;;;22.15;14.07;;;;;;;3.71;100.00;123617.06;5033890;28;20476;-63
2022/12/06 02:51:11;;;;;;;24.60;15.52;;;;;;;3.75;100.00;123277.84;5032345;28;20068;-62
2022/12/06 02:53:40;;;;;;;22.42;14.52;;;;;;;3.73;100.00;122928.50;5033666;28;20021;-63
2022/12/06 02:56:06;;;;;;;;;;;;;;;3.75;100.00;122585.25;5032688;28;20515;-63
2022/12/06 02:58:36;;;;;;;25.92;15.60;;;;;;;3.71;100.00;122578.19;5033712;28;19913;-63
2022/12/06 03:01:11;;;;;;;25.63;15.35;;;;;;;3.76;100.00;122241.03;5031693;28;20045;-63
2022/12/06 03:03:55;;;;;;;22.25;14.85;;;;;;;3.75;100.00;122240.03;5033598;28;20064;-63
2022/12/06 03:06:29;;;;;;;24.77;15.57;;;;;;;3.72;100.00;122233.97;5032249;28;20050;-63
2022/12/06 03:09:03;;;;;;;22.65;14.18;;;;;;;3.71;100.00;122231.97;5032849;28;20030;-63
2022/12/06 03:12:02;;;;;;;28.38;16.27;;;;;;;3.70;100.00;122229.94;5032102;28;20033;-62
2022/12/06 03:14:39;;;;;;;19.27;13.90;;;;;;;3.70;100.00;122228.94;5033554;28;20064;-63
2022/12/06 03:17:26;;;;;;;26.83;15.48;;;;;;;3.69;100.00;121881.72;5031344;28;20041;-62
2022/12/06 03:20:07;;;;;;;24.13;15.98;;;;;;;3.73;100.00;121542.56;5015306;28;20495;-63
2022/12/06 03:22:36;;;;;;;22.52;15.00;;;;;;;3.71;100.00;121193.44;5031722;28;20041;-63
2022/12/06 03:25:03;;;;;;;;;;;;;;;3.72;100.00;121195.44;5033417;28;20650;-63
2022/12/06 03:27:30;;;;;;;52.70;18.90;;;;;;;3.67;100.00;120838.34;5031676;28;20035;-63
2022/12/06 03:29:59;;;;;;;30.65;16.98;;;;;;;3.73;100.00;120505.22;5032810;28;20420;-65
2022/12/06 03:32:29;;;;;;;26.15;15.57;;;;;;;3.73;100.00;120505.22;5031393;28;20052;-64
2022/12/06 03:34:58;;;;;;;25.10;16.08;;;;;;;3.74;100.00;120161.13;5032843;28;20083;-64
2022/12/06 03:37:26;;;;;;;29.85;17.08;;;;;;;3.73;100.00;120159.16;5031636;28;20044;-64
2022/12/06 03:40:00;;;;;;;31.10;18.50;;;;;;;3.72;100.00;119811.13;5032446;28;20051;-64
2022/12/06 03:42:26;;;;;;;25.85;13.93;;;;;;;3.73;100.00;119467.09;5031471;28;20038;-63
2022/12/06 03:44:52;;;;;;;38.15;18.65;;;;;;;3.68;100.00;119457.28;5032645;28;20050;-63
2022/12/06 03:47:29;;;;;;;30.05;16.67;;;;;;;3.73;100.00;119121.13;5031083;28;20044;-63
2022/12/06 03:49:58;;;;;;;31.42;17.88;;;;;;;3.74;100.00;118777.13;5032548;28;20029;-63
2022/12/06 03:52:24;;;;;;;26.90;17.95;;;;;;;3.74;100.00;118430.19;5031083;28;20041;-62
2022/12/06 03:54:50;;;;;;;35.60;19.35;;;;;;;3.71;100.00;118425.34;5032120;28;20036;-62
2022/12/06 03:57:15;;;;;;;26.13;17.48;;;;;;;3.73;100.00;118429.25;5031207;28;20049;-63
2022/12/06 03:59:40;;;;;;;33.53;15.80;;;;;;;3.73;100.00;118429.25;5032604;28;20060;-63
2022/12/06 04:02:06;;;;;;;51.30;16.42;;;;;;;3.73;100.00;118429.25;5030606;28;20067;-63
2022/12/06 04:04:31;;;;;;;27.48;15.68;;;;;;;3.71;100.00;118079.44;5032537;28;20029;-63
2022/12/06 04:06:57;;;;;;;32.33;17.58;;;;;;;3.74;100.00;118084.31;5030686;28;20072;-63
2022/12/06 04:12:59;;;;;;;33.40;19.13;;;;;;;3.71;100.00;118079.44;5030958;28;20099;-63
2022/12/06 04:14:51;;;;;;;25.75;14.73;;;;;;;3.72;100.00;118081.41;5031551;28;20120;-64
2022/12/06 04:20:00;;;;;;;24.65;16.52;;;;;;;3.71;100.00;118078.50;5032135;28;20167;-66
2022/12/06 04:25:10;;;;;;;26.38;14.95;;;;;;;3.74;100.00;117738.44;5032092;28;20060;-64
2022/12/06 04:38:40;;;;;;;25.80;16.95;;;;;;;3.75;100.00;117395.53;5031568;28;20071;-63
2022/12/06 04:41:06;;;;;;;34.42;16.73;;;;;;;3.76;100.00;117397.41;5030288;28;20057;-65
2022/12/06 04:43:43;;;;;;;29.50;17.23;;;;;;;3.77;100.00;117053.53;5031777;28;20025;-63
2022/12/06 04:46:11;;;;;;;22.23;16.58;;;;;;;3.77;100.00;117053.53;5029613;28;20060;-64
2022/12/06 04:48:37;;;;;;;24.00;13.98;;;;;;;3.74;100.00;117392.59;5031870;28;20112;-64
2022/12/06 04:51:02;;;;;;;21.30;13.60;;;;;;;3.69;100.00;117729.72;5029904;28;20044;-63
2022/12/06 04:53:27;;;;;;;22.13;14.68;;;;;;;3.71;100.00;117733.59;5031559;28;20483;-64
2022/12/06 04:55:53;;;;;;;20.42;13.50;;;;;;;3.65;100.00;118414.59;5030318;28;20580;-63
2022/12/06 04:58:18;;;;;;;24.90;14.75;;;;;;;3.62;100.00;118754.63;5038488;28;20048;-63
2022/12/06 05:00:43;;;;;;;18.20;13.85;;;;;;;3.59;100.00;119093.66;5029796;28;20041;-63
2022/12/06 05:03:10;;;;;;;20.02;13.63;;;;;;;3.60;100.00;119441.53;5030435;28;20029;-63
2022/12/06 05:05:36;;;;;;;20.08;13.45;;;;;;;3.53;100.00;119773.66;5031685;28;20026;-64
2022/12/06 05:08:02;;;;;;;21.90;14.00;;;;;;;3.56;100.00;120125.50;5029180;28;20441;-63
2022/12/06 05:10:27;;;;;;;21.02;14.43;;;;;;;3.55;100.00;120470.50;5031640;28;20033;-67
2022/12/06 05:12:52;;;;;;;26.50;11.88;;;;;;;3.56;100.00;120472.47;5029440;28;20522;-65
2022/12/06 05:15:18;;;;;;;21.50;11.10;;;;;;;3.57;100.00;120819.47;5025939;28;20037;-63
2022/12/06 05:17:43;;;;;;;21.45;12.13;;;;;;;3.57;100.00;120819.47;5029707;28;20044;-63
2022/12/06 05:20:09;;;;;;;17.25;12.32;;;;;;;3.57;100.00;120820.47;5035408;28;20029;-62
2022/12/06 05:22:34;;;;;;;19.23;11.80;;;;;;;3.54;100.00;121160.50;5047439;28;20477;-61
2022/12/06 05:24:59;;;;;;;20.08;12.20;;;;;;;3.54;100.00;121505.56;5050786;28;20087;-63
2022/12/06 05:27:25;;;;;;;25.65;11.77;;;;;;;3.55;100.00;121508.56;5048427;28;20060;-63
2022/12/06 05:29:50;;;;;;;25.23;13.13;;;;;;;3.54;100.00;121852.63;5034280;28;20032;-63
2022/12/06 05:32:15;;;;;;;20.27;13.93;;;;;;;3.56;100.00;121855.63;5029531;28;20041;-63
2022/12/06 05:34:41;;;;;;;21.30;12.05;;;;;;;3.53;100.00;121849.63;5030939;28;20025;-63
2022/12/06 05:37:06;;;;;;;18.38;12.07;;;;;;;3.55;100.00;121853.63;5033178;28;20098;-63
2022/12/06 05:39:31;;;;;;;23.40;12.40;;;;;;;3.53;100.00;121850.63;5030776;28;20029;-63
2022/12/06 05:41:57;;;;;;;19.15;12.23;;;;;;;3.54;100.00;121851.63;5029317;28;20045;-63
2022/12/06 05:44:22;;;;;;;19.05;11.45;;;;;;;3.53;100.00;121849.63;5030409;28;20045;-63
2022/12/06 05:46:47;;;;;;;15.13;9.88;;;;;;;3.52;100.00;122193.72;5029509;28;20034;-63
2022/12/06 05:49:13;;;;;;;16.25;11.07;;;;;;;3.49;100.00;122535.78;5030321;28;20044;-63
2022/12/06 05:51:38;;;;;;;13.70;11.40;;;;;;;3.48;100.00;122879.88;5029223;28;20038;-63
2022/12/06 05:54:05;;;;;;;20.52;11.65;;;;;;;3.49;100.00;122880.91;5030547;28;20083;-63
2022/12/06 05:56:30;;;;;;;24.90;11.40;;;;;;;3.49;100.00;122881.91;5029328;28;20083;-63
2022/12/06 05:58:56;;;;;;;16.27;11.60;;;;;;;3.49;100.00;122881.91;5030181;28;20140;-63
2022/12/06 06:01:21;;;;;;;15.43;13.07;;;;;;;3.44;100.00;122871.81;5029190;28;20046;-62
2022/12/06 06:03:47;;;;;;;17.67;10.48;;;;;;;3.52;100.00;122885.97;5030886;28;20071;-63
2022/12/06 06:06:12;;;;;;;30.40;12.70;;;;;;;3.51;100.00;122884.94;5028868;28;20041;-63
2022/12/06 06:08:38;;;;;;;17.23;11.40;;;;;;;3.49;100.00;122880.91;5030924;28;20025;-63
2022/12/06 06:11:03;;;;;;;19.80;12.93;;;;;;;3.48;100.00;123226.03;5028955;28;20488;-63
2022/12/06 06:13:29;;;;;;;22.85;12.85;;;;;;;3.48;100.00;123226.03;5030344;28;20468;-63
2022/12/06 06:15:55;;;;;;;18.65;11.50;;;;;;;3.47;100.00;123570.19;5032386;28;20537;-63
2022/12/06 06:18:20;;;;;;;25.63;12.65;;;;;;;3.44;100.00;123564.09;5034494;28;20033;-63
2022/12/06 06:20:55;;;;;;;16.77;12.25;;;;;;;3.43;100.00;123908.25;5027397;28;20079;-62
2022/12/06 06:23:21;;;;;;;23.50;12.60;;;;;;;3.45;100.00;123911.31;5034542;28;20044;-63
2022/12/06 06:25:46;;;;;;;21.02;14.05;;;;;;;3.39;100.00;123900.06;5032869;28;20029;-62
2022/12/06 06:28:12;;;;;;;17.95;12.20;;;;;;;3.48;100.00;123917.44;5033862;28;20048;-62
2022/12/06 06:30:38;;;;;;;23.27;11.55;;;;;;;3.42;100.00;124252.41;5034067;28;20113;-63
2022/12/06 06:33:03;;;;;;;26.00;13.95;;;;;;;3.44;100.00;124256.53;5032593;28;20033;-63
2022/12/06 06:35:28;;;;;;;21.75;12.90;;;;;;;3.43;100.00;124254.47;5034046;28;20032;-63
2022/12/06 06:37:54;;;;;;;22.83;12.55;;;;;;;3.41;100.00;124596.59;5032491;28;20057;-63
2022/12/06 06:40:20;;;;;;;28.88;12.80;;;;;;;3.43;100.00;124600.72;5030041;28;20388;-63
2022/12/06 06:42:46;;;;;;;22.55;12.73;;;;;;;3.37;100.00;124934.63;5032015;28;20080;-63
2022/12/06 06:45:11;;;;;;;19.13;12.27;;;;;;;3.33;100.00;125272.63;5033380;28;20080;-63
2022/12/06 06:47:36;;;;;;;30.65;13.70;;;;;;;3.35;100.00;125275.75;5032292;28;20037;-63
2022/12/06 06:50:02;;;;;;;19.05;12.95;;;;;;;3.32;100.00;125617.88;5033699;28;20033;-63
2022/12/06 06:52:27;;;;;;;23.08;13.93;;;;;;;3.29;100.00;125956.91;5032146;28;20037;-63
2022/12/06 06:54:54;;;;;;;23.63;12.00;;;;;;;3.28;100.00;126302.16;5033833;28;20053;-63
2022/12/06 06:57:19;;;;;;;19.30;12.00;;;;;;;3.24;100.00;126640.16;5032294;28;20241;-63
2022/12/06 06:59:45;;;;;;;23.73;13.05;;;;;;;3.24;100.00;126985.47;5033172;28;20033;-63
2022/12/06 07:02:12;;;;;;;25.25;12.82;;;;;;;3.24;100.00;126985.47;5031948;28;20497;-63
2022/12/06 07:04:37;;;;;;;20.10;15.13;;;;;;;3.23;100.00;127329.72;5033346;28;20029;-63
2022/12/06 07:07:03;;;;;;;20.55;11.90;;;;;;;3.26;100.00;126989.63;5031238;28;20040;-63
2022/12/06 07:09:28;;;;;;;20.20;11.65;;;;;;;3.26;100.00;126989.63;5033556;28;20032;-63
2022/12/06 07:11:53;;;;;;;29.27;13.80;;;;;;;3.26;100.00;126990.69;5031691;28;20499;-63
2022/12/06 07:14:19;;;;;;;22.90;13.25;;;;;;;3.28;100.00;126647.47;5031087;28;20431;-63
2022/12/06 07:16:44;;;;;;;24.35;11.18;;;;;;;3.27;100.00;126299.03;5025971;28;20038;-62
2022/12/06 07:19:09;;;;;;;22.95;10.93;;;;;;;3.31;100.00;126307.41;5031283;28;20036;-62
2022/12/06 07:21:35;;;;;;;29.92;13.23;;;;;;;3.31;100.00;125961.06;5030157;28;20045;-62
2022/12/06 07:24:00;;;;;;;19.65;13.23;;;;;;;3.32;100.00;125963.13;5031061;28;20033;-62
2022/12/06 07:26:27;;;;;;;23.20;11.48;;;;;;;3.32;100.00;125963.13;5029242;28;20475;-62
2022/12/06 07:28:55;;;;;;;24.98;11.43;;;;;;;3.32;100.00;125616.81;5032328;28;20052;-63
2022/12/06 07:31:26;;;;;;;20.55;12.13;;;;;;;3.32;100.00;125616.81;5031146;28;20048;-62
2022/12/06 07:33:53;;;;;;;21.80;14.70;;;;;;;3.33;100.00;125272.63;5032964;28;20025;-63
2022/12/06 07:36:18;;;;;;;17.17;11.13;;;;;;;3.31;100.00;125268.50;5031286;28;20037;-62
2022/12/06 07:38:49;;;;;;;21.45;11.10;;;;;;;3.30;100.00;125267.47;5033252;28;20026;-62
2022/12/06 07:46:46;;;;;;;17.23;10.70;;;;;;;3.27;100.00;125606.47;5026315;28;20053;-62
2022/12/06 07:49:14;;;;;;;18.58;11.07;;;;;;;3.27;100.00;125952.75;5032456;28;20049;-63
2022/12/06 07:51:40;;;;;;;17.58;10.25;;;;;;;3.29;100.00;125611.63;5028348;28;20523;-62
2022/12/06 07:54:05;;;;;;;30.15;12.20;;;;;;;3.29;100.00;125611.63;5032097;28;20025;-62
2022/12/06 07:56:31;;;;;;;18.02;11.57;;;;;;;3.31;100.00;125268.50;5031297;28;20045;-63
2022/12/06 07:58:56;;;;;;;17.85;11.98;;;;;;;3.30;100.00;125613.72;5032082;28;20032;-61
2022/12/06 08:01:22;;;;;;;19.67;10.93;;;;;;;3.30;100.00;125613.72;5031215;28;20037;-61
2022/12/06 08:03:47;;;;;;;16.58;10.95;;;;;;;3.31;100.00;125615.78;5032598;28;20037;-62
2022/12/06 08:06:13;;;;;;;17.92;10.75;;;;;;;3.33;100.00;125272.63;5030513;28;20037;-62
2022/12/06 08:08:38;;;;;;;16.65;10.55;;;;;;;3.35;100.00;125276.75;5032356;28;20029;-61
2022/12/06 08:11:06;;;;;;;31.02;12.23;;;;;;;3.39;100.00;125284.00;5030483;28;20048;-62
2022/12/06 08:13:32;;;;;;;19.83;11.57;;;;;;;3.38;100.00;125282.97;5032022;28;20067;-62
2022/12/06 08:15:58;;;;;;;16.15;12.88;;;;;;;3.38;100.00;125282.97;5030601;28;20021;-62
2022/12/06 08:18:24;;;;;;;21.92;10.90;;;;;;;3.38;100.00;125629.28;5032680;28;20547;-62
2022/12/06 08:20:51;;;;;;;12.93;9.35;;;;;;;3.42;100.00;125291.22;5030245;28;20079;-62
2022/12/06 08:23:17;;;;;;;21.13;11.88;;;;;;;3.35;100.00;125623.06;5032126;28;20556;-62
2022/12/06 08:25:42;;;;;;;19.30;11.10;;;;;;;3.35;100.00;126315.72;5030771;28;20109;-61
2022/12/06 08:28:08;;;;;;;18.67;9.15;;;;;;;3.36;100.00;126664.19;5031464;28;20123;-62
2022/12/06 08:30:33;;;;;;;19.83;10.20;;;;;;;3.37;100.00;127012.69;5032056;28;20021;-62
2022/12/06 08:32:58;;;;;;;13.15;10.55;;;;;;;3.38;100.00;127361.25;5030391;28;20049;-62
2022/12/06 08:35:24;;;;;;;19.67;11.77;;;;;;;3.42;100.00;127368.63;5031521;28;20032;-63
2022/12/06 08:37:49;;;;;;;15.80;11.07;;;;;;;3.41;100.00;128060.56;5029259;28;20038;-63
2022/12/06 08:40:14;;;;;;;16.05;10.43;;;;;;;3.44;100.00;128066.94;5032015;28;20029;-63
2022/12/06 08:42:42;;;;;;;17.75;10.82;;;;;;;3.39;100.00;128748.41;5030101;28;20072;-63
2022/12/06 08:45:08;;;;;;;25.63;12.00;;;;;;;3.44;100.00;129453.41;5031321;28;20057;-63
2022/12/06 08:47:33;;;;;;;12.63;11.10;;;;;;;3.44;100.00;130145.72;5028032;28;20045;-63
2022/12/06 08:49:58;;;;;;;14.60;9.35;;;;;;;3.33;100.00;131510.09;5029558;28;20022;-63
2022/12/06 08:52:24;;;;;;;13.93;10.70;;;;;;;3.37;100.00;132212.47;5024782;28;20045;-63
2022/12/06 08:54:49;;;;;;;19.33;12.35;;;;;;;3.37;100.00;132906.28;5031296;28;20021;-63
2022/12/06 08:57:15;;;;;;;19.65;11.23;;;;;;;3.38;100.00;133602.41;5029277;28;20094;-63
2022/12/06 08:59:40;;;;;;;26.38;12.93;;;;;;;3.38;100.00;133948.28;5031841;28;20036;-63
2022/12/06 09:02:06;;;;;;;19.33;13.18;;;;;;;3.43;100.00;134654.66;5029823;28;20496;-63
2022/12/06 09:04:31;;;;;;;19.67;11.77;;;;;;;3.52;100.00;134672.47;5031225;28;20057;-63
2022/12/06 09:06:57;;;;;;;18.35;12.65;;;;;;;3.69;100.00;134015.84;5029755;28;20041;-63
2022/12/06 09:09:22;;;;;;;15.93;11.35;;;;;;;3.63;100.00;135044.19;5028328;28;20022;-63
2022/12/06 09:11:48;;;;;;;22.23;10.20;;;;;;;3.54;100.00;136760.47;5029586;28;20550;-63
2022/12/06 09:14:16;;;;;;;15.25;10.18;;;;;;;3.43;100.00;139169.56;5031336;28;20032;-63
2022/12/06 09:16:42;;;;;;;20.77;11.88;;;;;;;3.38;100.00;141243.34;5030104;28;20056;-63
2022/12/06 09:19:09;;;;;;;20.00;10.70;;;;;;;3.30;100.00;144007.44;5030779;28;20017;-63
2022/12/06 09:21:34;;;;;;;16.08;10.32;;;;;;;3.24;100.00;146427.19;5029872;28;20099;-62
2022/12/06 09:24:00;;;;;;;10.32;9.18;;;;;;;3.20;100.00;148855.19;5030763;28;20105;-61
2022/12/06 09:26:26;;;;;;;15.52;10.57;;;;;;;3.30;100.00;150271.81;5029448;28;20044;-62
2022/12/06 09:28:54;;;;;;;18.42;10.65;;;;;;;3.94;100.00;146243.97;5030896;28;20055;-61
2022/12/06 09:31:19;;;;;;;16.42;10.25;;;;;;;4.39;100.00;143213.00;5029769;28;20045;-62
2022/12/06 09:33:45;;;;;;;11.90;9.45;;;;;;;4.84;100.00;141921.88;5030774;28;20041;-62
2022/12/06 09:36:29;;;;;;;11.38;8.10;;;;;;;5.34;100.00;141339.44;5029167;28;20090;-62
2022/12/06 09:39:15;;;;;;;13.02;8.18;;;;;;;6.02;100.00;141841.75;5030776;28;20025;-62
2022/12/06 09:42:15;;;;;;;10.18;6.57;;;;;;;5.97;100.00;157840.25;5029462;28;20041;-62
2022/12/06 09:44:50;;;;;;;10.43;7.03;;;;;;;6.25;100.00;162200.34;5030823;28;20088;-60
2022/12/06 09:47:38;;;;;;;10.13;7.78;;;;;;;6.67;100.00;162310.72;5029535;28;20033;-60
2022/12/06 09:50:18;;;;;;;8.73;6.70;;;;;;;6.44;100.00;162250.16;5029721;28;20033;-60
2022/12/06 09:53:19;;;;;;;10.25;6.47;;;;;;;6.54;100.00;162275.72;5024188;28;20045;-60
2022/12/06 09:56:15;;;;;;;7.63;6.90;;;;;;;6.47;100.00;162256.88;5028980;28;20045;-60
2022/12/06 09:58:59;;;;;;;7.07;6.38;;;;;;;6.38;100.00;162232.63;5030948;28;20388;-63
2022/12/06 10:01:46;;;;;;;6.47;5.75;;;;;;;6.25;100.00;162200.34;5029378;28;20041;-63
2022/12/06 10:04:36;;;;;;;10.15;7.40;;;;;;;6.44;100.00;162248.84;5028774;28;20113;-62
2022/12/06 10:07:01;;;;;;;7.38;5.20;;;;;;;6.42;100.00;162243.44;5027189;28;20057;-62
2022/12/06 10:09:37;;;;;;;7.78;6.85;;;;;;;6.50;100.00;162266.31;5028770;28;20421;-62
2022/12/06 10:12:26;;;;;;;8.75;6.82;;;;;;;6.21;100.00;162189.59;5026764;28;20052;-62
2022/12/06 10:15:17;;;;;;;9.88;7.47;;;;;;;6.19;100.00;162184.22;5028657;28;20025;-62
2022/12/06 10:18:01;;;;;;;6.15;5.60;;;;;;;6.15;100.00;162174.78;5027180;28;20581;-62
2022/12/06 10:21:00;;;;;;;7.53;6.07;;;;;;;6.68;100.00;162312.09;5030533;28;20120;-62
2022/12/06 10:23:41;;;;;;;6.75;5.50;;;;;;;6.64;100.00;162301.31;5029027;28;20496;-62
2022/12/06 10:26:18;;;;;;;8.75;6.38;;;;;;;6.54;100.00;162275.72;5028450;28;20045;-62
2022/12/06 10:28:47;;;;;;;5.88;5.20;;;;;;;6.49;100.00;162262.28;5030827;28;20389;-62
2022/12/06 10:31:22;;;;;;;4.78;4.22;;;;;;;6.42;100.00;162243.44;5028791;28;20038;-62
2022/12/06 10:34:03;;;;;;;5.93;4.32;;;;;;;6.21;100.00;162189.59;5029951;28;20521;-62
2022/12/06 10:37:01;;;;;;;8.50;5.85;;;;;;;5.90;100.00;162108.81;5029075;28;20183;-62
2022/12/06 10:39:39;;;;;;;5.57;4.78;;;;;;;5.87;100.00;162100.72;5030582;28;20021;-62
2022/12/06 10:42:17;;;;;;;5.93;5.22;;;;;;;5.77;100.00;162073.81;5028783;28;20065;-62
2022/12/06 10:44:48;;;;;;;5.97;4.85;;;;;;;5.84;100.00;162093.97;5030115;28;20042;-62
2022/12/06 10:47:20;;;;;;;5.88;5.07;;;;;;;5.84;100.00;162092.66;5028600;28;20072;-62
2022/12/06 10:49:55;;;;;;;4.38;4.05;;;;;;;5.59;100.00;162028.06;5030161;28;20108;-62
2022/12/06 10:52:35;;;;;;;4.53;4.15;;;;;;;5.63;100.00;162038.81;5028902;28;20042;-62
2022/12/06 10:55:25;;;;;;;7.72;5.53;;;;;;;5.64;100.00;162041.50;5027856;28;20582;-62
2022/12/06 10:58:15;;;;;;;6.00;4.63;;;;;;;5.78;100.00;162076.47;5027000;28;20065;-62
2022/12/06 11:00:56;;;;;;;6.28;5.05;;;;;;;5.66;100.00;162045.56;5030415;28;20021;-61
2022/12/06 11:03:36;;;;;;;6.40;4.90;;;;;;;5.56;100.00;162019.97;5031725;28;20545;-61
2022/12/06 11:06:07;;;;;;;6.68;5.50;;;;;;;5.59;100.00;162026.69;5032038;28;20103;-61
2022/12/06 11:08:41;;;;;;;7.15;4.63;;;;;;;5.43;100.00;161985.00;5033934;28;20033;-62
2022/12/06 11:11:14;;;;;;;7.45;5.75;;;;;;;5.57;100.00;162022.66;5034988;28;20065;-62
2022/12/06 11:13:55;;;;;;;5.43;4.90;;;;;;;5.74;100.00;162065.72;5038742;28;20491;-61
2022/12/06 11:16:35;;;;;;;8.38;6.50;;;;;;;6.00;100.00;162135.72;5051340;28;20098;-61
2022/12/06 11:19:16;;;;;;;9.88;5.90;;;;;;;6.24;100.00;162197.66;5044117;28;20496;-62
2022/12/06 11:21:52;;;;;;;5.30;4.78;;;;;;;6.05;100.00;162147.84;5030450;28;20041;-62
2022/12/06 11:24:26;;;;;;;6.68;4.55;;;;;;;5.98;100.00;162128.97;5033757;28;20037;-62
2022/12/06 11:27:01;;;;;;;5.35;4.00;;;;;;;5.99;100.00;162133.09;5031333;28;20041;-62
2022/12/06 11:29:27;;;;;;;5.28;4.78;;;;;;;5.98;100.00;162130.34;5044157;28;20104;-62
2022/12/06 11:31:56;;;;;;;5.63;3.92;;;;;;;6.13;100.00;162168.06;5047015;28;20499;-61
2022/12/06 11:34:28;;;;;;;10.30;5.38;;;;;;;6.18;100.00;162181.50;5051294;28;20506;-61
2022/12/06 11:36:55;;;;;;;5.40;4.75;;;;;;;6.25;100.00;162200.34;5041746;28;20041;-61
2022/12/06 11:39:22;;;;;;;4.82;4.38;;;;;;;6.23;100.00;162194.94;5038131;28;20029;-61
2022/12/06 11:41:54;;;;;;;7.53;6.13;;;;;;;6.42;100.00;162243.44;5046147;28;20583;-61
2022/12/06 11:44:24;;;;;;;5.57;5.07;;;;;;;6.70;100.00;162316.13;5037519;28;20075;-61
2022/12/06 11:46:55;;;;;;;5.20;4.28;;;;;;;6.72;100.00;162322.84;5029909;28;20034;-61
2022/12/06 11:49:27;;;;;;;8.27;3.95;;;;;;;6.72;100.00;162321.53;5032563;28;20048;-61